Time;durP1;ratioP1;P1;durP2;ratioP2;P2;SDS_P1;SDS_P2;PMS_P1;PMS_P2;Temp;Humidity;BMP_temperature;BMP_pressure;BME280_temperature;BME280_humidity;BME280_pressure;Samples;Min_cycle;Max_cycle;Signal;HPM_P1;HPM_P2
2021/12/12 00:00:20;;;;;;;36.83;20.50;;;179.30;1996.80;;;;;;5078766;28;20077;-58
2021/12/12 00:03:02;;;;;;;33.70;20.85;;;179.40;2022.40;;;;;;5073628;28;20037;-55
2021/12/12 00:05:35;;;;;;;36.53;21.15;;;179.40;2022.40;;;;;;5083601;28;20032;-56
2021/12/12 00:08:01;;;;;;;34.58;20.15;;;179.40;1996.80;;;;;;5093911;28;20020;-56
2021/12/12 00:10:30;;;;;;;34.67;19.85;;;179.40;1971.20;;;;;;5077024;28;20025;-56
2021/12/12 00:13:02;;;;;;;34.65;19.73;;;179.30;1971.20;;;;;;5090294;28;20047;-59
2021/12/12 00:15:28;;;;;;;31.70;18.02;;;179.30;1945.60;;;;;;5097749;28;20028;-57
2021/12/12 00:17:54;;;;;;;34.30;18.83;;;179.20;1920.00;;;;;;5091708;28;20385;-58
2021/12/12 00:20:23;;;;;;;35.63;20.48;;;179.20;1945.60;;;;;;5097044;28;20039;-56
2021/12/12 00:22:50;;;;;;;30.65;18.70;;;179.20;1971.20;;;;;;5080043;28;20029;-57
2021/12/12 00:25:16;;;;;;;36.90;19.48;;;154.50;1945.60;;;;;;5077460;28;20115;-59
2021/12/12 00:27:44;;;;;;;33.17;19.30;;;179.20;1945.60;;;;;;5080293;28;20127;-57
2021/12/12 00:30:12;;;;;;;28.63;17.30;;;179.20;1945.60;;;;;;5077310;28;20058;-56
2021/12/12 00:32:39;;;;;;;32.75;19.08;;;179.20;1945.60;;;;;;5079963;28;20028;-59
2021/12/12 00:35:09;;;;;;;32.58;19.33;;;179.20;1971.20;;;;;;5095255;28;20489;-58
2021/12/12 00:37:36;;;;;;;34.90;20.38;;;179.20;1996.80;;;;;;5097699;28;20047;-57
2021/12/12 00:40:21;;;;;;;30.90;19.45;;;179.30;2022.40;;;;;;5096953;28;20111;-56
2021/12/12 00:42:47;;;;;;;;;;;179.30;2022.40;;;;;;5094239;28;20044;-56
2021/12/12 00:45:15;;;;;;;31.33;18.77;;;179.30;1996.80;;;;;;5092127;28;19954;-59
2021/12/12 00:47:44;;;;;;;31.73;18.90;;;179.20;1971.20;;;;;;5097469;28;20024;-56
2021/12/12 00:50:37;;;;;;;31.65;18.83;;;179.20;1945.60;;;;;;5095215;28;20477;-60
2021/12/12 00:53:07;;;;;;;29.02;17.65;;;179.20;1945.60;;;;;;5076057;28;20029;-56
2021/12/12 00:55:37;;;;;;;30.70;19.40;;;179.20;1945.60;;;;;;5082887;28;20039;-59
2021/12/12 00:58:08;;;;;;;33.22;19.67;;;179.20;1945.60;;;;;;5080801;28;20374;-56
2021/12/12 01:00:41;;;;;;;29.98;17.83;;;179.20;1945.60;;;;;;5078469;28;20109;-56
2021/12/12 01:03:09;;;;;;;32.20;18.40;;;154.50;1920.00;;;;;;5087910;28;20362;-55
2021/12/12 01:05:37;;;;;;;28.60;18.08;;;154.50;1920.00;;;;;;5086524;28;20389;-58
2021/12/12 01:08:04;;;;;;;31.85;19.00;;;154.50;1945.60;;;;;;5090176;28;20077;-56
2021/12/12 01:10:46;;;;;;;33.90;18.77;;;179.20;1945.60;;;;;;5096889;28;20028;-57
2021/12/12 01:13:13;;;;;;;32.42;19.50;;;179.20;1945.60;;;;;;5096970;28;20093;-56
2021/12/12 01:15:51;;;;;;;36.22;20.65;;;179.20;1996.80;;;;;;5096985;28;20354;-56
2021/12/12 01:18:24;;;;;;;31.42;18.75;;;179.20;2073.60;;;;;;5096569;28;20482;-56
2021/12/12 01:20:54;;;;;;;28.40;17.87;;;179.20;1996.80;;;;;;5096957;28;20402;-56
2021/12/12 01:23:33;;;;;;;33.22;17.77;;;179.20;1971.20;;;;;;5096864;28;20051;-57
2021/12/12 01:25:59;;;;;;;33.00;19.77;;;179.20;1945.60;;;;;;5095826;28;20024;-56
2021/12/12 01:28:30;;;;;;;31.15;18.77;;;154.50;1920.00;;;;;;5096692;28;20024;-56
2021/12/12 01:30:59;;;;;;;30.80;17.90;;;179.20;1920.00;;;;;;5096561;28;20533;-56
2021/12/12 01:33:36;;;;;;;30.55;17.25;;;154.50;1945.60;;;;;;5096359;28;20044;-56
2021/12/12 01:36:08;;;;;;;27.45;16.48;;;154.40;1945.60;;;;;;5096447;28;20396;-56
2021/12/12 01:38:53;;;;;;;29.40;17.05;;;154.20;1945.60;;;;;;5096379;28;20063;-57
2021/12/12 01:41:39;;;;;;;29.20;17.65;;;154.20;1945.60;;;;;;5096354;28;20487;-56
2021/12/12 01:44:14;;;;;;;25.88;15.82;;;154.20;1971.20;;;;;;5077981;28;20067;-56
2021/12/12 01:46:50;;;;;;;28.10;16.65;;;154.20;1945.60;;;;;;5096571;28;20020;-56
2021/12/12 01:49:23;;;;;;;25.08;15.18;;;154.30;1971.20;;;;;;5095881;28;20036;-56
2021/12/12 01:51:50;;;;;;;26.45;16.60;;;154.30;2022.40;;;;;;5096060;28;20074;-56
2021/12/12 01:54:22;;;;;;;25.23;16.15;;;154.40;2048.00;;;;;;5096385;28;20031;-56
2021/12/12 01:56:54;;;;;;;25.17;16.58;;;154.50;2022.40;;;;;;5096392;28;20028;-56
2021/12/12 01:59:29;;;;;;;24.30;15.57;;;154.50;1996.80;;;;;;5095918;28;20054;-56
2021/12/12 02:02:07;;;;;;;24.33;14.90;;;154.40;1971.20;;;;;;5095738;28;20032;-56
2021/12/12 02:04:40;;;;;;;24.25;14.48;;;154.40;1971.20;;;;;;5095918;28;20567;-56
2021/12/12 02:07:09;;;;;;;26.90;15.93;;;154.30;1920.00;;;;;;5096009;28;20027;-56
2021/12/12 02:09:35;;;;;;;27.13;15.50;;;154.20;1945.60;;;;;;5096030;28;20024;-57
2021/12/12 02:12:03;;;;;;;27.30;15.20;;;154.10;1971.20;;;;;;5095837;28;20055;-56
2021/12/12 02:14:32;;;;;;;25.42;15.35;;;154.20;1971.20;;;;;;5095813;28;20490;-56
2021/12/12 02:17:36;;;;;;;23.67;15.25;;;154.10;1971.20;;;;;;5095757;28;20036;-56
2021/12/12 02:20:18;;;;;;;24.02;14.02;;;154.20;1971.20;;;;;;5033419;28;20129;-55
2021/12/12 02:36:17;;;;;;;23.48;15.95;;;154.30;1996.80;;;;;;5033726;28;20040;-56
2021/12/12 02:38:44;;;;;;;23.38;14.95;;;154.30;1971.20;;;;;;5032771;28;20116;-55
2021/12/12 02:41:13;;;;;;;23.38;14.05;;;154.30;1945.60;;;;;;5033246;28;20060;-56
2021/12/12 02:43:46;;;;;;;21.10;13.48;;;154.20;1920.00;;;;;;5032567;28;20133;-56
2021/12/12 02:46:17;;;;;;;21.92;14.18;;;154.20;1945.60;;;;;;5032936;28;20025;-57
2021/12/12 02:48:46;;;;;;;22.77;13.38;;;154.20;1971.20;;;;;;5032775;28;20033;-56
2021/12/12 02:51:15;;;;;;;22.63;14.10;;;154.20;1945.60;;;;;;5032854;28;20056;-55
2021/12/12 02:53:52;;;;;;;22.80;13.40;;;154.20;1945.60;;;;;;5032930;28;20105;-56
2021/12/12 02:56:26;;;;;;;23.85;15.35;;;154.20;1945.60;;;;;;5084030;28;20032;-55
2021/12/12 02:58:53;;;;;;;21.30;13.63;;;154.20;1945.60;;;;;;5094929;28;20035;-56
2021/12/12 03:01:21;;;;;;;22.42;13.82;;;154.20;1971.20;;;;;;5094703;28;20501;-55
2021/12/12 03:03:50;;;;;;;23.23;13.38;;;154.20;1996.80;;;;;;5094954;28;20032;-56
2021/12/12 03:06:20;;;;;;;21.08;13.27;;;154.30;2022.40;;;;;;5094679;28;20039;-56
2021/12/12 03:08:49;;;;;;;20.98;13.40;;;154.30;2022.40;;;;;;5094845;28;20039;-56
2021/12/12 03:11:15;;;;;;;22.23;13.15;;;154.40;1996.80;;;;;;5094584;28;20095;-56
2021/12/12 03:13:42;;;;;;;20.67;12.75;;;154.40;1971.20;;;;;;5094769;28;20115;-57
2021/12/12 03:16:09;;;;;;;21.67;13.07;;;154.40;1971.20;;;;;;5094639;28;20028;-56
2021/12/12 03:18:41;;;;;;;21.55;12.85;;;154.40;1945.60;;;;;;5094596;28;20040;-55
2021/12/12 03:21:18;;;;;;;20.60;12.73;;;154.40;1971.20;;;;;;5094554;28;20020;-55
2021/12/12 03:23:52;;;;;;;21.50;13.35;;;154.40;1971.20;;;;;;5094458;28;20031;-56
2021/12/12 03:26:20;;;;;;;19.23;12.85;;;154.30;1971.20;;;;;;5094479;28;20355;-56
2021/12/12 03:28:48;;;;;;;21.90;13.68;;;154.30;1971.20;;;;;;5094560;28;20032;-55
2021/12/12 03:31:21;;;;;;;20.73;12.82;;;154.30;1971.20;;;;;;5094288;28;20461;-56
2021/12/12 03:33:47;;;;;;;20.10;12.75;;;154.30;1971.20;;;;;;5094292;28;20081;-55
2021/12/12 03:36:14;;;;;;;19.88;12.65;;;154.20;1971.20;;;;;;5094082;28;20024;-56
2021/12/12 03:38:45;;;;;;;19.48;12.07;;;154.30;1971.20;;;;;;5094118;28;20042;-55
2021/12/12 03:41:20;;;;;;;21.10;13.52;;;154.30;1996.80;;;;;;5094226;28;20028;-56
2021/12/12 03:43:52;;;;;;;20.23;12.35;;;154.40;1996.80;;;;;;5093685;28;20067;-56
2021/12/12 03:46:18;;;;;;;19.25;12.10;;;154.40;2022.40;;;;;;5093967;28;20027;-57
2021/12/12 03:48:44;;;;;;;24.27;13.18;;;154.50;1996.80;;;;;;5093497;28;20485;-57
2021/12/12 03:51:15;;;;;;;21.33;13.45;;;154.40;1971.20;;;;;;5093856;28;20048;-56
2021/12/12 03:53:40;;;;;;;20.63;13.10;;;154.40;1945.60;;;;;;5093944;28;20100;-55
2021/12/12 03:56:09;;;;;;;19.90;13.15;;;154.40;1945.60;;;;;;5093802;28;20138;-56
2021/12/12 03:58:35;;;;;;;20.90;12.55;;;154.30;1945.60;;;;;;5093944;28;20039;-56
2021/12/12 04:01:03;;;;;;;19.98;13.98;;;154.40;1971.20;;;;;;5093976;28;20028;-56
2021/12/12 04:03:29;;;;;;;19.67;12.73;;;154.40;1945.60;;;;;;5093912;28;20031;-56
2021/12/12 04:06:01;;;;;;;20.85;12.50;;;154.40;1971.20;;;;;;5093716;28;20020;-56
2021/12/12 04:08:47;;;;;;;21.30;12.68;;;154.40;1945.60;;;;;;5093754;28;20105;-55
2021/12/12 04:11:20;;;;;;;21.77;13.18;;;154.30;1945.60;;;;;;5093742;28;20098;-57
2021/12/12 04:13:48;;;;;;;22.63;14.55;;;154.30;1945.60;;;;;;5093807;28;20032;-58
2021/12/12 04:16:14;;;;;;;22.00;14.20;;;154.30;1945.60;;;;;;5093971;28;20016;-55
2021/12/12 04:18:41;;;;;;;21.38;13.98;;;154.40;1971.20;;;;;;5093765;28;20060;-56
2021/12/12 04:21:07;;;;;;;20.02;13.38;;;154.40;1996.80;;;;;;5093627;28;20024;-56
2021/12/12 04:23:33;;;;;;;21.90;13.65;;;154.40;1996.80;;;;;;5093875;28;20099;-56
2021/12/12 04:26:30;;;;;;;19.52;12.50;;;154.40;1945.60;;;;;;5093798;28;20099;-56
2021/12/12 04:28:58;;;;;;;20.50;12.60;;;154.40;1971.20;;;;;;5031115;28;20038;-56
2021/12/12 04:31:24;;;;;;;24.88;13.75;;;154.30;1945.60;;;;;;5031212;28;20101;-55
2021/12/12 04:33:52;;;;;;;22.67;13.77;;;154.40;1945.60;;;;;;5031172;28;20038;-56
2021/12/12 04:36:23;;;;;;;20.85;13.10;;;154.30;1920.00;;;;;;5031375;28;20040;-58
2021/12/12 04:38:48;;;;;;;20.63;13.18;;;154.20;1945.60;;;;;;5031542;28;20053;-56
2021/12/12 04:41:14;;;;;;;21.10;13.68;;;154.20;1945.60;;;;;;5031342;28;20028;-56
2021/12/12 04:43:41;;;;;;;22.25;13.52;;;154.30;1945.60;;;;;;5030934;28;20053;-57
2021/12/12 04:46:11;;;;;;;23.67;14.45;;;154.20;1945.60;;;;;;5031170;28;20033;-56
2021/12/12 04:51:56;;;;;;;23.27;15.15;;;154.30;1945.60;;;;;;5031781;28;20091;-56
2021/12/12 04:54:32;;;;;;;25.98;14.10;;;154.20;1971.20;;;;;;5031517;28;20026;-56
2021/12/12 04:57:08;;;;;;;24.23;15.30;;;154.20;1971.20;;;;;;5031032;28;20032;-56
2021/12/12 04:59:42;;;;;;;24.73;14.18;;;154.30;1996.80;;;;;;5031723;28;20088;-56
2021/12/12 05:02:10;;;;;;;21.90;13.53;;;154.30;1971.20;;;;;;5034674;28;20025;-56
2021/12/12 05:04:37;;;;;;;25.02;13.98;;;154.30;1945.60;;;;;;5048292;28;20036;-56
2021/12/12 05:07:13;;;;;;;21.23;13.32;;;154.20;1945.60;;;;;;5097232;28;20074;-56
2021/12/12 05:09:50;;;;;;;22.83;13.57;;;154.10;1920.00;;;;;;5097161;28;20373;-56
2021/12/12 05:12:53;;;;;;;26.08;15.18;;;154.10;1920.00;;;;;;5097013;28;20032;-56
2021/12/12 05:15:24;;;;;;;23.73;14.02;;;154.10;1945.60;;;;;;5097230;28;20435;-56
2021/12/12 05:17:55;;;;;;;23.05;14.68;;;154.10;1945.60;;;;;;5096834;28;20043;-56
2021/12/12 05:20:29;;;;;;;25.73;16.15;;;154.10;1945.60;;;;;;5096605;28;20048;-55
2021/12/12 05:23:00;;;;;;;24.38;14.98;;;154.10;1945.60;;;;;;5097158;28;20077;-55
2021/12/12 05:25:37;;;;;;;23.35;14.63;;;154.10;1945.60;;;;;;5096830;28;20078;-59
2021/12/12 05:28:04;;;;;;;25.52;14.65;;;154.10;1945.60;;;;;;5097047;28;20032;-57
2021/12/12 05:30:34;;;;;;;24.92;15.23;;;154.10;1945.60;;;;;;5096803;28;20032;-56
2021/12/12 05:33:01;;;;;;;22.98;14.90;;;154.10;1971.20;;;;;;5096450;28;20043;-56
2021/12/12 05:35:32;;;;;;;27.25;15.82;;;154.20;1971.20;;;;;;5096578;28;20028;-56
2021/12/12 05:37:59;;;;;;;25.20;15.68;;;154.20;1971.20;;;;;;5096510;28;20526;-55
2021/12/12 05:40:29;;;;;;;26.83;15.23;;;154.20;1945.60;;;;;;5096762;28;20034;-55
2021/12/12 05:42:59;;;;;;;26.23;14.68;;;154.10;1920.00;;;;;;5096314;28;20048;-55
2021/12/12 05:45:26;;;;;;;26.27;15.02;;;154.10;1945.60;;;;;;5096235;28;20032;-59
2021/12/12 05:47:52;;;;;;;23.17;14.85;;;154.10;1920.00;;;;;;5096219;28;20381;-55
2021/12/12 05:50:18;;;;;;;22.45;14.30;;;154.10;1920.00;;;;;;5096399;28;20021;-56
2021/12/12 05:52:46;;;;;;;23.30;14.13;;;154.10;1920.00;;;;;;5096298;28;20469;-56
2021/12/12 05:55:15;;;;;;;25.80;15.10;;;154.00;1945.60;;;;;;5096194;28;20024;-56
2021/12/12 05:57:44;;;;;;;23.92;14.30;;;154.10;1920.00;;;;;;5096436;28;20020;-59
2021/12/12 06:00:15;;;;;;;28.35;16.05;;;154.00;1920.00;;;;;;5096078;28;20050;-56
2021/12/12 06:02:41;;;;;;;25.42;15.25;;;154.00;1920.00;;;;;;5096102;28;20031;-56
2021/12/12 06:05:08;;;;;;;27.58;15.95;;;154.00;1920.00;;;;;;5096046;28;20031;-56
2021/12/12 06:07:36;;;;;;;26.85;15.10;;;154.10;1945.60;;;;;;5095687;28;20024;-56
2021/12/12 06:10:10;;;;;;;26.42;16.17;;;154.00;1945.60;;;;;;5095743;28;20458;-56
2021/12/12 06:12:37;;;;;;;29.60;16.70;;;154.00;1971.20;;;;;;5096201;28;20050;-56
2021/12/12 06:15:09;;;;;;;29.55;17.17;;;154.10;1971.20;;;;;;5095729;28;20085;-56
2021/12/12 06:17:36;;;;;;;26.90;16.70;;;154.10;1920.00;;;;;;5095417;28;20024;-56
2021/12/12 06:20:04;;;;;;;30.52;17.75;;;154.10;1920.00;;;;;;5095749;28;20032;-55
2021/12/12 06:22:30;;;;;;;28.70;18.10;;;154.10;1920.00;;;;;;5095616;28;20020;-56
2021/12/12 06:24:56;;;;;;;32.67;17.88;;;154.10;1894.40;;;;;;5095710;28;20024;-56
2021/12/12 06:27:22;;;;;;;33.28;18.55;;;154.10;1894.40;;;;;;5095691;28;20027;-56
2021/12/12 06:29:51;;;;;;;32.88;19.02;;;154.10;1920.00;;;;;;5095069;28;20024;-57
2021/12/12 06:32:18;;;;;;;36.38;21.27;;;154.10;1945.60;;;;;;5088727;28;20027;-55
2021/12/12 06:34:44;;;;;;;35.85;19.90;;;154.10;1920.00;;;;;;5077680;28;20024;-55
2021/12/12 06:37:10;;;;;;;33.85;20.45;;;154.10;1945.60;;;;;;5084586;28;20016;-55
2021/12/12 06:39:37;;;;;;;31.73;19.92;;;154.10;1920.00;;;;;;5083293;28;20101;-56
2021/12/12 06:42:04;;;;;;;34.35;19.98;;;154.10;1920.00;;;;;;5085263;28;20515;-55
2021/12/12 06:44:31;;;;;;;39.95;21.63;;;154.10;1920.00;;;;;;5084352;28;20063;-56
2021/12/12 06:46:59;;;;;;;34.67;20.02;;;154.10;1920.00;;;;;;5083528;28;20027;-55
2021/12/12 06:49:25;;;;;;;34.72;20.10;;;154.10;1920.00;;;;;;5085102;28;20024;-55
2021/12/12 06:51:55;;;;;;;33.60;19.48;;;154.10;1920.00;;;;;;5084389;28;20009;-59
2021/12/12 06:54:24;;;;;;;34.60;20.10;;;154.10;1945.60;;;;;;5083489;28;20051;-57
2021/12/12 06:56:52;;;;;;;36.10;20.65;;;154.10;1920.00;;;;;;5084198;28;20047;-58
2021/12/12 06:59:18;;;;;;;41.88;22.88;;;154.10;1920.00;;;;;;5094063;28;20093;-55
2021/12/12 07:01:44;;;;;;;46.88;22.60;;;154.00;1920.00;;;;;;5094792;28;20408;-55
2021/12/12 07:04:13;;;;;;;59.45;27.15;;;154.10;1920.00;;;;;;5083594;28;20355;-55
2021/12/12 07:06:39;;;;;;;58.45;26.83;;;154.00;1920.00;;;;;;5076719;28;20107;-55
2021/12/12 07:09:09;;;;;;;47.45;24.60;;;154.00;1920.00;;;;;;5082498;28;20030;-54
2021/12/12 07:11:37;;;;;;;42.97;23.65;;;154.00;1920.00;;;;;;5083004;28;20146;-55
2021/12/12 07:14:06;;;;;;;46.15;24.52;;;154.00;1920.00;;;;;;5079781;28;20029;-55
2021/12/12 07:16:33;;;;;;;42.63;23.33;;;154.00;1920.00;;;;;;5088759;28;20038;-58
2021/12/12 07:18:59;;;;;;;40.83;23.17;;;154.00;1920.00;;;;;;5094332;28;20047;-56
2021/12/12 07:21:26;;;;;;;38.13;22.92;;;154.00;1920.00;;;;;;5086944;28;20454;-55
2021/12/12 07:23:52;;;;;;;45.13;23.35;;;154.00;1920.00;;;;;;5077395;28;20497;-55
2021/12/12 07:26:24;;;;;;;41.70;23.65;;;153.90;1920.00;;;;;;5084762;28;20012;-58
2021/12/12 07:28:53;;;;;;;37.20;22.25;;;153.90;1920.00;;;;;;5079487;28;20532;-54
2021/12/12 07:31:26;;;;;;;34.35;21.65;;;153.90;1920.00;;;;;;5084811;28;20071;-59
2021/12/12 07:33:55;;;;;;;39.30;23.52;;;153.90;1920.00;;;;;;5091807;28;20110;-59
2021/12/12 07:36:22;;;;;;;42.90;24.10;;;153.90;1920.00;;;;;;5091631;28;20024;-54
2021/12/12 07:39:05;;;;;;;57.88;29.92;;;153.80;1920.00;;;;;;5084746;28;20069;-53
2021/12/12 07:41:31;;;;;;;62.13;34.40;;;153.90;1920.00;;;;;;5084506;28;20031;-58
2021/12/12 07:43:59;;;;;;;49.60;27.02;;;153.80;1920.00;;;;;;5092227;28;20054;-56
2021/12/12 07:46:25;;;;;;;44.30;24.15;;;153.80;1920.00;;;;;;5093984;28;20070;-56
2021/12/12 07:48:53;;;;;;;42.65;23.80;;;153.80;1920.00;;;;;;5093512;28;20016;-56
2021/12/12 07:51:20;;;;;;;41.97;23.27;;;153.80;1920.00;;;;;;5093864;28;20458;-56
2021/12/12 07:53:49;;;;;;;43.80;23.90;;;153.70;1920.00;;;;;;5094172;28;20028;-56
2021/12/12 07:56:16;;;;;;;54.30;27.85;;;153.70;1920.00;;;;;;5093954;28;20041;-55
2021/12/12 07:58:43;;;;;;;60.53;31.20;;;153.70;1920.00;;;;;;5093923;28;20497;-55
2021/12/12 08:01:09;;;;;;;49.78;28.42;;;153.70;1920.00;;;;;;5093567;28;20030;-55
2021/12/12 08:03:37;;;;;;;57.70;27.95;;;153.70;1920.00;;;;;;5094005;28;20024;-56
2021/12/12 08:06:06;;;;;;;51.45;27.48;;;153.60;1945.60;;;;;;5094028;28;20103;-56
2021/12/12 08:08:32;;;;;;;53.10;27.77;;;153.60;1945.60;;;;;;5093911;28;20051;-56
2021/12/12 08:10:59;;;;;;;54.45;26.48;;;153.60;1945.60;;;;;;5093896;28;20024;-56
2021/12/12 08:13:25;;;;;;;50.17;26.20;;;153.60;1945.60;;;;;;5093847;28;20020;-56
2021/12/12 08:15:51;;;;;;;53.75;27.63;;;153.70;1945.60;;;;;;5093529;28;20024;-55
2021/12/12 08:18:19;;;;;;;57.08;27.60;;;153.60;1945.60;;;;;;5093410;28;20115;-56
2021/12/12 08:20:47;;;;;;;57.58;28.88;;;153.70;1945.60;;;;;;5093573;28;20028;-56
2021/12/12 08:23:15;;;;;;;59.60;28.65;;;153.70;1945.60;;;;;;5093747;28;20107;-56
2021/12/12 08:25:43;;;;;;;61.45;30.27;;;153.70;1945.60;;;;;;5093813;28;20036;-56
2021/12/12 08:28:09;;;;;;;71.35;31.90;;;153.60;1945.60;;;;;;5093438;28;20134;-56
2021/12/12 08:30:36;;;;;;;71.70;32.35;;;153.60;1945.60;;;;;;5093375;28;20035;-58
2021/12/12 08:33:05;;;;;;;69.25;32.72;;;153.60;1945.60;;;;;;5093181;28;20031;-57
2021/12/12 08:35:31;;;;;;;65.18;31.85;;;153.60;1945.60;;;;;;5097551;28;20500;-55
2021/12/12 08:38:00;;;;;;;58.55;29.35;;;153.60;1945.60;;;;;;5098054;28;20031;-58
2021/12/12 08:40:28;;;;;;;57.88;28.83;;;153.60;1945.60;;;;;;5097497;28;20032;-55
2021/12/12 08:42:55;;;;;;;56.47;29.33;;;153.60;1971.20;;;;;;5097469;28;20048;-56
2021/12/12 08:45:25;;;;;;;52.03;26.50;;;153.60;1971.20;;;;;;5098097;28;20058;-56
2021/12/12 08:47:52;;;;;;;49.70;28.02;;;153.60;1971.20;;;;;;5079447;28;20028;-55
2021/12/12 08:50:24;;;;;;;51.13;27.20;;;128.90;1971.20;;;;;;5097732;28;20398;-56
2021/12/12 08:52:52;;;;;;;45.35;25.55;;;128.90;1971.20;;;;;;5097472;28;20044;-56
2021/12/12 08:55:31;;;;;;;48.65;27.13;;;128.90;1971.20;;;;;;5097304;28;20546;-55
2021/12/12 08:58:20;;;;;;;48.20;27.52;;;128.90;1971.20;;;;;;5097145;28;20028;-56
2021/12/12 09:00:54;;;;;;;55.90;28.38;;;128.90;1971.20;;;;;;5096392;28;20036;-55
2021/12/12 09:03:29;;;;;;;54.90;28.88;;;128.90;1971.20;;;;;;5097066;28;20400;-56
2021/12/12 09:05:55;;;;;;;54.75;29.42;;;128.90;1971.20;;;;;;5096995;28;20028;-56
2021/12/12 09:08:41;;;;;;;50.03;27.63;;;128.80;1971.20;;;;;;5097040;28;20046;-56
2021/12/12 09:11:22;;;;;;;46.22;24.90;;;128.80;1996.80;;;;;;5096827;28;20024;-56
2021/12/12 09:13:54;;;;;;;48.08;26.73;;;128.80;1971.20;;;;;;5096886;28;20016;-56
2021/12/12 09:16:24;;;;;;;53.25;28.75;;;128.80;1996.80;;;;;;5096855;28;20519;-56
2021/12/12 09:18:57;;;;;;;49.70;25.27;;;128.80;1996.80;;;;;;5096746;28;20040;-56
2021/12/12 09:21:58;;;;;;;48.28;26.70;;;128.80;1996.80;;;;;;5096905;28;20109;-56
2021/12/12 09:24:44;;;;;;;48.00;27.48;;;128.80;1996.80;;;;;;5034281;28;20141;-56
2021/12/12 09:27:24;;;;;;;47.97;26.77;;;128.70;1996.80;;;;;;5034595;28;20030;-56
2021/12/12 09:30:10;;;;;;;50.38;26.73;;;128.80;1996.80;;;;;;5034430;28;20048;-56
2021/12/12 09:32:43;;;;;;;44.60;26.90;;;128.80;1996.80;;;;;;5034157;28;20021;-56
2021/12/12 09:35:40;;;;;;;54.17;28.85;;;128.80;1996.80;;;;;;5034062;28;20033;-56
2021/12/12 09:38:53;;;;;;;49.00;27.05;;;128.70;2022.40;;;;;;5014354;28;20054;-55
2021/12/12 09:41:30;;;;;;;50.10;27.58;;;128.70;2022.40;;;;;;4936524;29;20477;-55
2021/12/12 09:44:14;;;;;;;49.75;27.35;;;128.70;2022.40;;;;;;4936384;29;20159;-59
2021/12/12 09:47:26;;;;;;;44.00;26.45;;;128.70;2022.40;;;;;;4935828;29;20026;-57
2021/12/12 09:53:26;;;;;;;50.08;28.80;;;128.70;2022.40;;;;;;4861648;29;20071;-55
2021/12/12 09:56:11;;;;;;;55.35;29.25;;;128.70;2022.40;;;;;;4861445;29;20042;-56
2021/12/12 09:58:37;;;;;;;52.13;28.00;;;128.70;2022.40;;;;;;4861434;29;20045;-55
2021/12/12 10:01:07;;;;;;;54.45;28.35;;;128.70;2022.40;;;;;;4861222;29;20041;-55
2021/12/12 10:03:48;;;;;;;50.67;27.77;;;128.70;2022.40;;;;;;4860781;29;20041;-55
2021/12/12 10:06:16;;;;;;;48.10;27.58;;;128.80;2022.40;;;;;;4861332;29;20517;-61
2021/12/12 10:08:49;;;;;;;49.13;26.85;;;128.70;2022.40;;;;;;4861241;29;20052;-56
2021/12/12 10:11:38;;;;;;;51.47;26.13;;;128.80;2022.40;;;;;;4859268;29;20531;-59
2021/12/12 10:14:19;;;;;;;54.42;27.20;;;128.70;2022.40;;;;;;4871136;29;20652;-61
2021/12/12 10:17:09;;;;;;;47.38;25.25;;;128.80;2022.40;;;;;;4983718;28;20030;-58
2021/12/12 10:19:54;;;;;;;51.15;26.65;;;128.80;2022.40;;;;;;4983595;28;20038;-56
2021/12/12 10:22:38;;;;;;;;;;;128.80;2022.40;;;;;;4984205;28;20022;-56
2021/12/12 10:25:22;;;;;;;52.38;25.27;;;128.80;2022.40;;;;;;4983821;28;20047;-57
2021/12/12 10:28:22;;;;;;;49.38;26.90;;;128.80;2022.40;;;;;;4983592;28;20043;-57
2021/12/12 10:31:25;;;;;;;48.92;27.75;;;128.70;2022.40;;;;;;5062803;28;20036;-56
2021/12/12 10:34:00;;;;;;;51.60;27.00;;;128.80;2022.40;;;;;;5095335;28;20024;-57
2021/12/12 10:36:47;;;;;;;48.05;24.88;;;128.70;2022.40;;;;;;5095180;28;20024;-56
2021/12/12 10:39:25;;;;;;;46.42;25.75;;;128.80;2048.00;;;;;;5095214;28;20119;-57
2021/12/12 10:41:57;;;;;;;45.80;26.00;;;128.80;2022.40;;;;;;5095011;28;20016;-58
2021/12/12 10:44:27;;;;;;;48.35;26.27;;;128.80;2022.40;;;;;;5077001;28;20035;-56
2021/12/12 10:47:11;;;;;;;43.80;24.70;;;128.80;2022.40;;;;;;5095106;28;20127;-68
2021/12/12 10:50:02;;;;;;;42.25;24.10;;;128.90;2048.00;;;;;;5095064;28;20012;-55
2021/12/12 10:52:37;;;;;;;38.35;21.95;;;128.90;2048.00;;;;;;5095007;28;20047;-56
2021/12/12 10:55:17;;;;;;;36.08;20.48;;;128.90;2022.40;;;;;;5094895;28;20028;-56
2021/12/12 10:57:53;;;;;;;35.67;20.67;;;128.90;2022.40;;;;;;5088130;28;20481;-59
2021/12/12 11:00:24;;;;;;;39.35;22.23;;;128.90;2022.40;;;;;;5076031;28;20500;-60
2021/12/12 11:03:14;;;;;;;40.70;22.77;;;128.90;2022.40;;;;;;5082655;28;20090;-57
2021/12/12 11:05:47;;;;;;;42.72;24.10;;;128.90;2048.00;;;;;;5083079;28;20060;-60
2021/12/12 11:08:22;;;;;;;44.90;24.33;;;128.90;2048.00;;;;;;5074843;28;20158;-62
2021/12/12 11:10:51;;;;;;;39.95;22.17;;;128.90;2048.00;;;;;;5074457;28;20040;-56
2021/12/12 11:13:32;;;;;;;41.38;23.33;;;153.60;2048.00;;;;;;5074435;28;20048;-60
2021/12/12 11:16:10;;;;;;;42.63;22.90;;;153.60;2022.40;;;;;;5074237;28;20021;-57
2021/12/12 11:18:53;;;;;;;41.17;23.48;;;153.60;1996.80;;;;;;5074109;28;20045;-60
2021/12/12 11:21:34;;;;;;;42.08;23.70;;;128.90;1996.80;;;;;;5074126;28;20025;-60
2021/12/12 11:24:14;;;;;;;44.03;25.27;;;128.90;1996.80;;;;;;5073895;28;20024;-56
2021/12/12 11:27:12;;;;;;;44.80;25.73;;;128.90;1996.80;;;;;;5074486;28;20404;-60
2021/12/12 11:29:42;;;;;;;44.13;26.48;;;128.90;1996.80;;;;;;5073198;28;20039;-60
2021/12/12 11:32:36;;;;;;;45.75;25.38;;;128.80;1971.20;;;;;;5074126;28;20390;-59
2021/12/12 11:35:07;;;;;;;39.97;23.58;;;128.80;1971.20;;;;;;5074094;28;20021;-60
2021/12/12 11:37:43;;;;;;;42.75;24.60;;;128.80;1996.80;;;;;;5073978;28;20458;-57
2021/12/12 11:40:54;;;;;;;38.67;21.48;;;128.80;1996.80;;;;;;5074053;28;20028;-60
2021/12/12 11:43:33;;;;;;;45.88;23.17;;;128.80;1996.80;;;;;;5069682;28;20055;-57
2021/12/12 11:46:04;;;;;;;41.92;23.70;;;128.80;2048.00;;;;;;5073842;28;20108;-59
2021/12/12 11:48:59;;;;;;;35.00;20.92;;;128.90;2048.00;;;;;;5073568;28;20054;-56
2021/12/12 11:51:33;;;;;;;41.78;23.13;;;128.90;1996.80;;;;;;5073895;28;20095;-60
2021/12/12 11:54:15;;;;;;;40.17;22.33;;;128.90;1996.80;;;;;;5073513;28;20116;-56
2021/12/12 11:56:51;;;;;;;47.45;23.77;;;128.80;1971.20;;;;;;5073955;28;20020;-56
2021/12/12 11:59:25;;;;;;;40.47;22.38;;;128.70;1996.80;;;;;;5073750;28;20043;-56
2021/12/12 12:02:08;;;;;;;46.63;23.75;;;128.80;1996.80;;;;;;5073549;28;20021;-60
2021/12/12 12:04:55;;;;;;;44.30;23.60;;;128.80;1996.80;;;;;;5073544;28;20025;-60
2021/12/12 12:07:49;;;;;;;40.83;22.00;;;128.70;1971.20;;;;;;5073696;28;20025;-57
2021/12/12 12:10:29;;;;;;;40.63;22.73;;;128.70;1996.80;;;;;;5073384;28;20078;-57
2021/12/12 12:13:17;;;;;;;39.92;21.40;;;128.70;2022.40;;;;;;5073603;28;20075;-56
2021/12/12 12:15:53;;;;;;;41.35;20.73;;;128.70;2022.40;;;;;;5073453;28;20047;-61
2021/12/12 12:18:34;;;;;;;41.97;22.30;;;128.70;2048.00;;;;;;5072598;28;20025;-65
2021/12/12 12:21:28;;;;;;;264.17;142.63;;;128.70;2048.00;;;;;;5080198;28;20028;-60
2021/12/12 12:24:37;;;;;;;68.07;40.15;;;153.80;2252.80;;;;;;5072557;28;20025;-64
2021/12/12 12:27:12;;;;;;;84.38;55.10;;;154.30;2252.80;;;;;;5072333;28;20035;-60
2021/12/12 12:29:44;;;;;;;375.02;243.13;;;179.30;2150.40;;;;;;5072491;28;20378;-62
2021/12/12 12:32:47;;;;;;;470.88;252.20;;;179.40;1996.80;;;;;;5072511;28;20111;-60
2021/12/12 12:35:46;;;;;;;398.83;238.10;;;179.20;1920.00;;;;;;5068019;28;20043;-67
2021/12/12 12:38:45;;;;;;;232.05;144.50;;;154.40;1920.00;;;;;;5082203;28;20028;-58
2021/12/12 12:41:35;;;;;;;140.90;95.28;;;154.20;1920.00;;;;;;5084597;28;20017;-60
2021/12/12 12:44:38;;;;;;;120.53;80.35;;;154.00;1920.00;;;;;;5082775;28;20546;-59
2021/12/12 12:47:40;;;;;;;144.73;86.85;;;153.90;1920.00;;;;;;5079494;28;20039;-60
2021/12/12 12:50:47;;;;;;;116.53;68.25;;;153.80;1945.60;;;;;;5082003;28;20065;-63